Datos. Málaga, Centro Meteorológico

Actualizado: viernes, 25 julio 2014 a las 08:32 hora oficial
Ind. climatológico: 6156X -  Altitud (m): 54
Latitud36° 43' 4'' N - Longitud4° 28' 54'' O -  PosiciónVer localización
MunicipioMálaga (Málaga) - Ver predicción
Registros - de
Fecha y hora oficial

 

Temp. (°C)

 

V. vien. (km/h)

 

Dir. viento

 

Racha (km/h)

 

Dir. racha

 

Prec. (mm)

 

Presión (hPa)

 

Tend. (hPa)

 

Humedad (%)

 

25/07/2014 08:00 22.6 7 4-EsteEste 13 4-EsteEste 0.0 1003.8 1.0 79
25/07/2014 07:00 22.0 0 1-CalmaCalma 4 5-SudesteSudeste 0.0 1003.1 0.1 75
25/07/2014 06:00 23.4 0 1-CalmaCalma 5 8-OesteOeste 0.0 1002.9 -0.2 63
25/07/2014 05:00 23.8 0 1-CalmaCalma 5 9-NoroesteNoroeste 0.0 1002.8 -0.7 64
25/07/2014 04:00 25.7 10 8-OesteOeste 18 8-OesteOeste 0.0 1003.0 -0.4 50
25/07/2014 03:00 24.5 8 9-NoroesteNoroeste 14 9-NoroesteNoroeste 0.0 1003.1 -0.4 61
25/07/2014 02:00 23.1 3 8-OesteOeste 5 8-OesteOeste 0.0 1003.5 0.5 73
25/07/2014 01:00 23.4 5 8-OesteOeste 9 8-OesteOeste 0.0 1003.4 1.0 72
25/07/2014 00:00 23.7 8 4-EsteEste 12 4-EsteEste 0.0 1003.5 1.7 72
24/07/2014 23:00 26.0 0 1-CalmaCalma 4 6-SurSur 0.0 1003.0 1.8 60
24/07/2014 22:00 26.4 3 8-OesteOeste 6 9-NoroesteNoroeste 0.0 1002.4 1.4 60
24/07/2014 21:00 26.6 2 6-SurSur 5 7-SudoesteSudoeste 0.0 1001.8 0.3 58
24/07/2014 20:00 28.0 9 5-SudesteSudeste 16 4-EsteEste 0.0 1001.2 -0.6 55
24/07/2014 19:00 29.1 11 4-EsteEste 19 5-SudesteSudeste 0.0 1001.0 -1.3 54
24/07/2014 18:00 28.6 14 5-SudesteSudeste 24 5-SudesteSudeste 0.0 1001.5 -1.3 54
24/07/2014 17:00 28.4 15 4-EsteEste 26 5-SudesteSudeste 0.0 1001.8 -1.1 55
24/07/2014 16:00 28.5 17 4-EsteEste 26 4-EsteEste 0.0 1002.3 -0.8 53
24/07/2014 15:00 28.0 18 5-SudesteSudeste 27 5-SudesteSudeste 0.0 1002.8 0.5 55
24/07/2014 14:00 27.6 16 4-EsteEste 25 5-SudesteSudeste 0.0 1002.9 0.3 56
24/07/2014 13:00 30.1 13 5-SudesteSudeste 25 4-EsteEste 0.0 1003.1 0.2 46
24/07/2014 12:00 35.4 19 8-OesteOeste 28 8-OesteOeste 0.0 1002.3 -0.8 32
24/07/2014 11:00 32.6 16 8-OesteOeste 24 8-OesteOeste 0.0 1002.6 -0.4 36
24/07/2014 10:00 29.6 13 8-OesteOeste 22 8-OesteOeste 0.0 1002.9 -0.2 40
24/07/2014 09:00 27.2 9 9-NoroesteNoroeste 16 9-NoroesteNoroeste 0.0 1003.1 0.1 44
First Page First Page First Page Last Page
Lineas por página
Página   de  
Compartir:  
En esta página podrá acceder, en forma gráfica y en tabla, a las observaciones horarias de las últimas 24 horas, así como a los valores extremos y acumulados desde las 00 horas del día hasta la hora de actualización indicada, obtenidos en la red de estaciones de AEMET. También podrá acceder a los resúmenes diarios de estas estaciones en los últimos 7 días.

En el mapa aparecen estaciones con valor númerico y otras representadas por un punto. En las primeras, al pasar el ratón, aparece un desplegable con la información completa de la estación. Las estaciones representadas por un punto son estaciones de la red climatológica, con transmisión de datos superior a la hora, por lo que al seleccionarlas pueden no aparecer los últimos datos.

Los datos presentados han sido únicamente sometidos a controles automáticos de calidad en tiempo real, por lo que no puede garantizarse la ausencia de errores.
© AEMET. Autorizado el uso de la información y su reproducción citando a AEMET como autora de la misma.